Time;durP1;ratioP1;P1;durP2;ratioP2;P2;SDS_P1;SDS_P2;PMS_P1;PMS_P2;Temp;Humidity;BMP_temperature;BMP_pressure;BME280_temperature;BME280_humidity;BME280_pressure;Samples;Min_cycle;Max_cycle;Signal;HPM_P1;HPM_P2
2023/03/20 00:02:23;;;;;;;2.47;2.28;;;;;;;6.49;100.00;96138.13;4954913;28;20450;-66
2023/03/20 00:04:49;;;;;;;2.60;1.70;;;;;;;6.37;100.00;96126.72;4952986;28;20031;-65
2023/03/20 00:07:14;;;;;;;1.90;1.77;;;;;;;6.37;100.00;96120.69;4951894;28;20019;-66
2023/03/20 00:09:39;;;;;;;1.77;1.60;;;;;;;6.35;100.00;96122.56;4938993;29;20511;-66
2023/03/20 00:12:05;;;;;;;2.15;1.95;;;;;;;6.43;100.00;96130.72;4952720;28;20385;-65
2023/03/20 00:14:33;;;;;;;2.53;2.35;;;;;;;6.36;100.00;96124.25;4955414;28;20069;-66
2023/03/20 00:16:59;;;;;;;2.90;2.70;;;;;;;6.35;100.00;96125.19;4954776;28;20429;-65
2023/03/20 00:19:28;;;;;;;3.13;2.63;;;;;;;6.33;100.00;96122.66;4954651;28;20026;-65
2023/03/20 00:21:54;;;;;;;2.15;2.05;;;;;;;6.27;100.00;96126.53;4953278;28;20027;-66
2023/03/20 00:24:20;;;;;;;2.00;1.90;;;;;;;6.24;100.00;96129.34;4954859;28;20447;-65
2023/03/20 00:26:47;;;;;;;2.53;2.33;;;;;;;6.23;100.00;96130.28;4955698;28;20027;-65
2023/03/20 00:29:20;;;;;;;3.38;2.00;;;;;;;6.22;100.00;96130.41;4949547;28;20125;-66
2023/03/20 00:31:46;;;;;;;4.13;1.80;;;;;;;6.18;100.00;96129.78;4950663;28;20055;-66
2023/03/20 00:34:14;;;;;;;1.83;1.73;;;;;;;6.11;100.00;96133.75;4954691;28;20027;-66
2023/03/20 00:36:40;;;;;;;2.65;1.67;;;;;;;6.16;100.00;96136.88;4952573;28;20023;-66
2023/03/20 00:39:05;;;;;;;4.38;1.70;;;;;;;6.19;100.00;96130.59;4955109;28;20050;-65
2023/03/20 00:41:37;;;;;;;2.83;1.95;;;;;;;6.14;100.00;96125.69;4950770;28;20496;-65
2023/03/20 00:44:28;;;;;;;2.00;1.90;;;;;;;6.15;100.00;96128.19;4956200;28;20471;-65
2023/03/20 00:46:56;;;;;;;2.35;2.15;;;;;;;6.16;100.00;96129.03;4947399;28;20031;-65
2023/03/20 00:49:26;;;;;;;2.33;2.13;;;;;;;6.11;100.00;96123.31;4954762;28;20087;-65
2023/03/20 00:51:52;;;;;;;2.00;1.90;;;;;;;6.10;100.00;96124.25;4956812;28;20061;-65
2023/03/20 00:54:17;;;;;;;2.38;1.88;;;;;;;6.12;100.00;96127.59;4951818;28;20475;-65
2023/03/20 00:56:57;;;;;;;2.00;1.80;;;;;;;6.12;100.00;96125.78;4959740;28;20127;-66
2023/03/20 00:59:27;;;;;;;1.63;1.50;;;;;;;6.13;100.00;96124.03;4954470;28;20051;-65
2023/03/20 01:01:53;;;;;;;2.00;1.90;;;;;;;6.09;100.00;96125.19;4956794;28;20558;-65
2023/03/20 01:04:20;;;;;;;1.88;1.80;;;;;;;6.06;100.00;96120.97;4960100;28;20027;-66
2023/03/20 01:06:46;;;;;;;3.90;3.63;;;;;;;6.07;100.00;96114.81;4956540;28;20465;-66
2023/03/20 01:09:11;;;;;;;4.35;3.85;;;;;;;6.08;100.00;96113.03;4956577;28;20046;-66
2023/03/20 01:11:38;;;;;;;4.85;3.78;;;;;;;6.04;100.00;96108.94;4961387;28;20502;-65
2023/03/20 01:14:12;;;;;;;3.40;3.10;;;;;;;6.05;100.00;96108.00;4956434;28;20456;-66
2023/03/20 01:16:37;;;;;;;5.78;3.75;;;;;;;6.01;100.00;96099.56;4959463;28;20031;-66
2023/03/20 01:19:03;;;;;;;8.15;6.05;;;;;;;6.02;100.00;96104.66;4957723;28;20031;-65
2023/03/20 01:21:29;;;;;;;7.25;6.45;;;;;;;6.00;100.00;96105.69;4960963;28;20090;-66
2023/03/20 01:23:54;;;;;;;6.95;6.32;;;;;;;5.96;100.00;96102.44;4956296;28;20023;-66
2023/03/20 01:26:30;;;;;;;7.30;5.47;;;;;;;5.92;100.00;96102.75;4961515;28;20027;-66
2023/03/20 01:28:56;;;;;;;5.43;4.93;;;;;;;5.91;100.00;96096.69;4958265;28;20024;-66
2023/03/20 01:31:21;;;;;;;5.07;4.68;;;;;;;5.93;100.00;96092.19;4951187;28;20029;-66
2023/03/20 01:33:47;;;;;;;4.82;4.22;;;;;;;5.92;100.00;96095.75;4954436;28;20459;-65
2023/03/20 01:36:16;;;;;;;5.30;4.80;;;;;;;5.92;100.00;96084.44;4959091;28;20058;-66
2023/03/20 01:38:42;;;;;;;5.22;4.15;;;;;;;5.91;100.00;96088.84;4963877;28;20102;-66
2023/03/20 01:41:16;;;;;;;5.40;3.90;;;;;;;5.90;100.00;96075.88;4961266;28;20055;-66
2023/03/20 01:43:44;;;;;;;2.75;2.58;;;;;;;5.88;100.00;96087.28;4960755;28;20392;-65
2023/03/20 01:46:09;;;;;;;3.20;2.92;;;;;;;5.95;100.00;96085.09;4960499;28;21000;-66
2023/03/20 01:48:50;;;;;;;7.25;3.25;;;;;;;6.02;100.00;96082.94;4958276;28;20114;-65
2023/03/20 01:51:17;;;;;;;2.30;2.10;;;;;;;6.00;100.00;96079.56;4959662;28;20761;-66
2023/03/20 01:53:47;;;;;;;2.42;2.33;;;;;;;5.94;100.00;96079.94;4961306;28;20543;-66
2023/03/20 01:56:15;;;;;;;2.90;2.70;;;;;;;5.87;100.00;96082.16;4954153;28;20027;-66
2023/03/20 01:58:45;;;;;;;2.95;2.40;;;;;;;5.85;100.00;96079.63;4951770;28;20394;-66
2023/03/20 02:01:12;;;;;;;2.60;2.40;;;;;;;5.85;100.00;96073.56;4956399;28;20111;-66
2023/03/20 02:03:41;;;;;;;2.97;2.70;;;;;;;5.83;100.00;96080.66;4958108;28;20089;-67
2023/03/20 02:06:07;;;;;;;2.28;2.10;;;;;;;5.81;100.00;96072.09;4955890;28;20023;-65
2023/03/20 02:08:39;;;;;;;3.50;2.50;;;;;;;5.84;100.00;96066.66;4955746;28;20140;-66
2023/03/20 02:11:05;;;;;;;2.88;2.67;;;;;;;5.89;100.00;96067.22;4955700;28;20035;-65
2023/03/20 02:13:32;;;;;;;3.88;2.35;;;;;;;6.00;100.00;96062.06;4955361;28;20417;-65
2023/03/20 02:16:00;;;;;;;2.92;1.80;;;;;;;6.00;100.00;96072.53;4959843;28;20346;-65
2023/03/20 02:18:26;;;;;;;1.83;1.73;;;;;;;5.90;100.00;96066.28;4960746;28;20035;-65
2023/03/20 02:21:18;;;;;;;1.80;1.70;;;;;;;5.88;100.00;96065.53;4951396;28;20027;-65
2023/03/20 02:24:21;;;;;;;4.78;1.90;;;;;;;5.88;100.00;96057.69;4957112;28;20038;-65
2023/03/20 02:26:52;;;;;;;3.78;1.90;;;;;;;5.85;100.00;96058.72;4956790;28;20067;-65
2023/03/20 02:29:33;;;;;;;1.98;1.70;;;;;;;5.84;100.00;96059.69;4953451;28;20034;-65
2023/03/20 02:32:21;;;;;;;1.90;1.80;;;;;;;5.81;100.00;96056.41;4958026;28;20031;-66
2023/03/20 02:35:01;;;;;;;2.15;1.77;;;;;;;5.81;100.00;96056.41;4956377;28;20085;-65
2023/03/20 02:37:46;;;;;;;1.90;1.80;;;;;;;5.87;100.00;96061.25;4955079;28;20031;-66
2023/03/20 02:40:54;;;;;;;1.80;1.70;;;;;;;5.80;100.00;96052.13;4956075;28;20043;-66
2023/03/20 02:43:44;;;;;;;2.28;1.60;;;;;;;5.83;100.00;96062.38;4946779;28;20086;-65
2023/03/20 02:46:33;;;;;;;2.00;1.90;;;;;;;5.77;100.00;96065.41;4955661;28;20023;-65
2023/03/20 02:49:17;;;;;;;2.13;2.03;;;;;;;5.73;100.00;96072.59;4949929;28;20035;-66
2023/03/20 02:52:17;;;;;;;2.95;2.20;;;;;;;5.70;100.00;96073.66;4956383;28;20118;-66
2023/03/20 02:54:51;;;;;;;4.03;2.38;;;;;;;5.67;100.00;96076.50;4955803;28;20160;-65
2023/03/20 02:57:31;;;;;;;2.13;1.95;;;;;;;5.67;100.00;96070.41;4955073;28;20034;-65
2023/03/20 03:00:08;;;;;;;3.03;2.33;;;;;;;5.66;100.00;96074.81;4954893;28;20682;-65
2023/03/20 03:02:38;;;;;;;3.55;2.60;;;;;;;5.67;100.00;96078.25;4951850;28;20031;-65
2023/03/20 03:05:13;;;;;;;2.88;2.17;;;;;;;5.64;100.00;96068.00;4953794;28;20159;-65
2023/03/20 03:07:43;;;;;;;3.03;2.28;;;;;;;5.55;100.00;96072.06;4952621;28;20023;-65
2023/03/20 03:10:21;;;;;;;2.38;2.28;;;;;;;5.51;100.00;96060.97;4956505;28;20050;-65
2023/03/20 03:12:50;;;;;;;2.58;2.38;;;;;;;5.53;100.00;96060.88;4957617;28;20028;-66
2023/03/20 03:15:24;;;;;;;2.63;2.53;;;;;;;5.56;100.00;96055.47;4955511;28;20082;-66
2023/03/20 03:17:50;;;;;;;2.25;2.15;;;;;;;5.56;100.00;96058.06;4948533;28;20039;-65
2023/03/20 03:20:22;;;;;;;1.80;1.80;;;;;;;5.56;100.00;96050.22;4954269;28;20085;-66
2023/03/20 03:22:49;;;;;;;1.90;1.80;;;;;;;5.57;100.00;96050.16;4953800;28;20034;-65
2023/03/20 03:25:14;;;;;;;3.03;2.13;;;;;;;5.57;100.00;96049.28;4956658;28;20047;-66
2023/03/20 03:27:43;;;;;;;2.10;2.00;;;;;;;5.53;100.00;96048.69;4956697;28;20381;-66
2023/03/20 03:30:23;;;;;;;1.92;1.92;;;;;;;5.44;100.00;96050.13;4954165;28;20058;-65
2023/03/20 03:32:56;;;;;;;2.42;2.22;;;;;;;5.41;100.00;96046.88;4953570;28;20047;-66
2023/03/20 03:35:22;;;;;;;2.03;1.90;;;;;;;5.39;100.00;96044.34;4955608;28;20019;-65
2023/03/20 03:38:02;;;;;;;2.35;2.20;;;;;;;5.40;100.00;96039.97;4954145;28;20031;-66
2023/03/20 03:41:02;;;;;;;2.03;1.90;;;;;;;5.35;100.00;96042.06;4955192;28;20535;-66
2023/03/20 03:43:38;;;;;;;3.30;2.00;;;;;;;5.29;100.00;96040.69;4956126;28;20039;-65
2023/03/20 03:46:13;;;;;;;2.42;1.73;;;;;;;5.24;100.00;96040.16;4956302;28;20034;-65
2023/03/20 03:48:50;;;;;;;2.13;1.70;;;;;;;5.20;100.00;96041.28;4953565;28;20385;-66
2023/03/20 03:51:18;;;;;;;1.58;1.50;;;;;;;5.15;100.00;96047.63;4956832;28;20121;-65
2023/03/20 03:53:51;;;;;;;1.73;1.63;;;;;;;5.16;100.00;96041.47;4957038;28;20045;-65
2023/03/20 03:56:20;;;;;;;1.77;1.55;;;;;;;5.20;100.00;96042.13;4955549;28;20023;-65
2023/03/20 03:58:51;;;;;;;1.60;1.50;;;;;;;5.15;100.00;96045.00;4956366;28;20027;-65
2023/03/20 04:01:17;;;;;;;1.30;1.30;;;;;;;5.12;100.00;96039.19;4948458;28;20074;-66
2023/03/20 04:03:49;;;;;;;1.50;1.40;;;;;;;5.07;100.00;96034.25;4958215;28;20077;-65
2023/03/20 04:06:16;;;;;;;1.50;1.40;;;;;;;5.06;100.00;96042.16;4948533;28;20026;-65
2023/03/20 04:08:42;;;;;;;1.67;1.58;;;;;;;5.01;100.00;96042.47;4954491;28;20058;-65
2023/03/20 04:11:16;;;;;;;1.73;1.50;;;;;;;4.97;100.00;96044.44;4952794;28;20062;-65
2023/03/20 04:13:41;;;;;;;1.38;1.38;;;;;;;4.94;100.00;96051.63;4950982;28;20102;-66
2023/03/20 04:16:12;;;;;;;1.60;1.50;;;;;;;4.93;100.00;96044.72;4955120;28;20031;-65
2023/03/20 04:18:38;;;;;;;2.25;1.42;;;;;;;4.96;100.00;96054.97;4950919;28;20364;-65
2023/03/20 04:21:03;;;;;;;1.50;1.40;;;;;;;4.95;100.00;96053.28;4954234;28;20027;-65
2023/03/20 04:23:29;;;;;;;1.73;1.63;;;;;;;5.00;100.00;96059.91;4954624;28;20062;-66
2023/03/20 04:25:54;;;;;;;1.70;1.70;;;;;;;5.08;100.00;96069.00;4956840;28;20515;-65
2023/03/20 04:28:19;;;;;;;2.25;1.67;;;;;;;5.15;100.00;96071.13;4950048;28;20582;-66
2023/03/20 04:30:52;;;;;;;1.88;1.77;;;;;;;5.15;100.00;96070.31;4948951;28;20035;-65
2023/03/20 04:33:17;;;;;;;2.38;2.28;;;;;;;5.14;100.00;96077.28;4955454;28;20158;-65
2023/03/20 04:35:42;;;;;;;3.08;2.90;;;;;;;5.20;100.00;96077.84;4952893;28;20181;-66
2023/03/20 04:38:08;;;;;;;2.85;2.67;;;;;;;5.20;100.00;96073.44;4953322;28;20039;-65
2023/03/20 04:40:33;;;;;;;3.25;2.92;;;;;;;5.22;100.00;96075.97;4949059;28;20035;-66
2023/03/20 04:42:59;;;;;;;3.45;3.22;;;;;;;5.18;100.00;96072.72;4955883;28;20033;-66
2023/03/20 04:45:24;;;;;;;3.33;3.10;;;;;;;5.24;100.00;96071.47;4952839;28;20035;-66
2023/03/20 04:47:50;;;;;;;3.20;3.10;;;;;;;5.28;100.00;96078.16;4948833;28;20031;-65
2023/03/20 04:50:15;;;;;;;4.13;2.78;;;;;;;5.28;100.00;96078.16;4952609;28;20039;-66
2023/03/20 04:52:40;;;;;;;3.65;3.33;;;;;;;5.26;100.00;96077.44;4954922;28;20029;-65
2023/03/20 04:55:06;;;;;;;3.58;3.38;;;;;;;5.25;100.00;96076.59;4951707;28;20023;-65
2023/03/20 04:57:32;;;;;;;3.70;3.50;;;;;;;5.26;100.00;96070.44;4950981;28;20115;-66
2023/03/20 04:59:57;;;;;;;3.45;3.25;;;;;;;5.26;100.00;96067.00;4952674;28;20052;-65
2023/03/20 05:02:23;;;;;;;3.20;2.88;;;;;;;5.28;100.00;96065.94;4951361;28;20086;-66
2023/03/20 05:04:48;;;;;;;3.08;2.88;;;;;;;5.29;100.00;96069.41;4946894;28;20074;-65
2023/03/20 05:07:13;;;;;;;3.10;2.90;;;;;;;5.33;100.00;96055.19;4951851;28;20031;-65
2023/03/20 05:09:39;;;;;;;2.75;2.65;;;;;;;5.32;100.00;96061.34;4957200;28;20031;-65
2023/03/20 05:12:05;;;;;;;3.00;2.78;;;;;;;5.37;100.00;96059.28;4952759;28;20041;-66
2023/03/20 05:14:30;;;;;;;5.60;2.50;;;;;;;5.38;100.00;96055.72;4953627;28;20038;-66
2023/03/20 05:16:55;;;;;;;3.05;2.70;;;;;;;5.37;100.00;96064.50;4954141;28;20035;-66
2023/03/20 05:19:21;;;;;;;4.00;3.80;;;;;;;5.37;100.00;96058.47;4955499;28;20031;-66
2023/03/20 05:21:46;;;;;;;6.30;5.80;;;;;;;5.42;100.00;96059.84;4937073;29;20027;-66
2023/03/20 05:24:11;;;;;;;12.02;8.23;;;;;;;5.44;100.00;96060.56;4949472;28;20563;-66
2023/03/20 05:26:37;;;;;;;5.15;4.75;;;;;;;5.44;100.00;96063.19;4952036;28;20477;-66
2023/03/20 05:29:02;;;;;;;4.25;3.78;;;;;;;5.46;100.00;96068.28;4953302;28;20035;-66
2023/03/20 05:31:28;;;;;;;3.10;3.00;;;;;;;5.47;100.00;96069.13;4951381;28;20026;-66
2023/03/20 05:33:53;;;;;;;3.25;3.05;;;;;;;5.42;100.00;96061.59;4956010;28;20086;-65
2023/03/20 05:36:19;;;;;;;2.67;2.53;;;;;;;5.39;100.00;96067.03;4956120;28;20028;-65
2023/03/20 05:38:44;;;;;;;3.22;3.03;;;;;;;5.38;100.00;96071.41;4955034;28;20451;-66
2023/03/20 05:41:10;;;;;;;3.42;3.20;;;;;;;5.41;100.00;96070.38;4957234;28;20503;-65
2023/03/20 05:43:35;;;;;;;4.10;3.70;;;;;;;5.40;100.00;96063.47;4956812;28;20085;-66
2023/03/20 05:46:01;;;;;;;3.30;3.10;;;;;;;5.40;100.00;96063.47;4954784;28;20407;-66
2023/03/20 05:48:26;;;;;;;3.83;3.53;;;;;;;5.46;100.00;96068.28;4955473;28;20031;-66
2023/03/20 05:50:51;;;;;;;4.22;3.92;;;;;;;5.46;100.00;96068.28;4957679;28;20046;-66
2023/03/20 05:53:17;;;;;;;4.30;4.00;;;;;;;5.47;100.00;96074.34;4954083;28;20499;-66
2023/03/20 05:55:43;;;;;;;4.57;4.28;;;;;;;5.45;100.00;96061.38;4948255;28;20028;-65
2023/03/20 05:58:10;;;;;;;4.70;4.40;;;;;;;5.47;100.00;96075.19;4956023;28;20067;-66
2023/03/20 06:00:35;;;;;;;5.28;4.80;;;;;;;5.50;100.00;96079.38;4955919;28;20043;-66
2023/03/20 06:03:01;;;;;;;5.35;5.05;;;;;;;5.50;100.00;96076.75;4940749;29;20086;-65
2023/03/20 06:05:26;;;;;;;7.40;5.90;;;;;;;5.52;100.00;96080.94;4956172;28;20038;-65
2023/03/20 06:07:51;;;;;;;6.20;5.65;;;;;;;5.52;100.00;96073.09;4957144;28;20027;-66
2023/03/20 06:10:19;;;;;;;6.25;5.72;;;;;;;5.53;100.00;96071.34;4952890;28;20062;-65
2023/03/20 06:12:45;;;;;;;7.25;5.82;;;;;;;5.60;100.00;96077.81;4956379;28;20062;-66
2023/03/20 06:15:11;;;;;;;5.60;5.20;;;;;;;5.64;100.00;96070.63;4950953;28;20027;-66
2023/03/20 06:17:36;;;;;;;5.88;5.47;;;;;;;5.64;100.00;96066.25;4956649;28;20038;-65
2023/03/20 06:20:02;;;;;;;6.75;5.93;;;;;;;5.67;100.00;96073.88;4953714;28;20035;-65
2023/03/20 06:22:27;;;;;;;7.72;6.97;;;;;;;5.68;100.00;96077.31;4953229;28;20090;-65
2023/03/20 06:24:53;;;;;;;8.52;7.68;;;;;;;5.69;100.00;96073.75;4953169;28;20118;-66
2023/03/20 06:27:18;;;;;;;8.38;7.68;;;;;;;5.69;100.00;96076.38;4955008;28;20027;-66
2023/03/20 06:29:43;;;;;;;7.50;6.95;;;;;;;5.72;100.00;96078.78;4955645;28;20038;-66
2023/03/20 06:32:11;;;;;;;8.70;7.93;;;;;;;5.78;100.00;96078.38;4952137;28;20031;-66
2023/03/20 06:34:36;;;;;;;12.60;11.50;;;;;;;5.78;100.00;96080.16;4953210;28;20055;-66
2023/03/20 06:37:02;;;;;;;12.35;10.75;;;;;;;5.80;100.00;96079.13;4955610;28;20087;-65
2023/03/20 06:39:27;;;;;;;9.77;8.93;;;;;;;5.88;100.00;96078.59;4956096;28;20077;-65
2023/03/20 06:41:53;;;;;;;8.55;7.85;;;;;;;5.90;100.00;96074.13;4953603;28;20130;-65
2023/03/20 06:44:18;;;;;;;8.85;8.10;;;;;;;5.95;100.00;96074.63;4957669;28;20459;-65
2023/03/20 06:46:44;;;;;;;9.45;8.60;;;;;;;6.07;100.00;96078.22;4952463;28;20036;-65
2023/03/20 06:49:09;;;;;;;10.10;8.82;;;;;;;6.06;100.00;96075.69;4953659;28;20027;-65
2023/03/20 06:51:34;;;;;;;9.38;8.68;;;;;;;6.09;100.00;96068.50;4954574;28;20832;-66
2023/03/20 06:54:00;;;;;;;9.68;8.77;;;;;;;6.11;100.00;96082.28;4952278;28;20462;-65
2023/03/20 06:56:25;;;;;;;9.82;9.02;;;;;;;6.09;100.00;96076.34;4953931;28;20031;-65
2023/03/20 06:58:51;;;;;;;10.40;9.50;;;;;;;6.19;100.00;96086.16;4953789;28;20484;-64
2023/03/20 07:01:18;;;;;;;10.02;9.07;;;;;;;6.25;100.00;96078.72;4953430;28;20567;-66
2023/03/20 07:03:44;;;;;;;11.15;9.63;;;;;;;6.22;100.00;96086.78;4952549;28;20411;-66
2023/03/20 07:06:10;;;;;;;10.18;9.18;;;;;;;6.23;100.00;96090.25;4955250;28;20066;-66
2023/03/20 07:08:35;;;;;;;10.13;9.23;;;;;;;6.25;100.00;96090.97;4953017;28;20405;-66
2023/03/20 07:11:03;;;;;;;10.55;9.30;;;;;;;6.34;100.00;96094.75;4953395;28;20042;-66
2023/03/20 07:13:28;;;;;;;10.80;9.27;;;;;;;6.35;100.00;96104.25;4956843;28;20098;-66
2023/03/20 07:15:54;;;;;;;10.20;9.15;;;;;;;6.36;100.00;96113.78;4953280;28;20490;-67
2023/03/20 07:18:20;;;;;;;9.60;7.82;;;;;;;6.39;100.00;96110.94;4950558;28;20687;-66
2023/03/20 07:20:45;;;;;;;8.65;7.85;;;;;;;6.35;100.00;96104.25;4953278;28;20034;-66
2023/03/20 07:23:11;;;;;;;8.63;7.80;;;;;;;6.41;100.00;96111.69;4950515;28;20042;-66
2023/03/20 07:25:37;;;;;;;9.63;8.77;;;;;;;6.57;100.00;96111.44;4953820;28;20094;-68
2023/03/20 07:28:04;;;;;;;8.52;7.75;;;;;;;6.63;100.00;96110.19;4952490;28;20057;-67
2023/03/20 07:30:30;;;;;;;8.32;7.63;;;;;;;6.63;100.00;96118.03;4950386;28;20023;-67
2023/03/20 07:32:56;;;;;;;8.93;8.02;;;;;;;6.65;100.00;96118.75;4951597;28;20043;-67
2023/03/20 07:35:21;;;;;;;10.00;8.23;;;;;;;6.64;100.00;96120.56;4954953;28;20154;-66
2023/03/20 07:37:47;;;;;;;8.93;8.13;;;;;;;6.71;100.00;96121.78;4955334;28;20464;-67
2023/03/20 07:40:12;;;;;;;9.00;8.25;;;;;;;6.83;100.00;96127.94;4951774;28;20027;-66
2023/03/20 07:42:37;;;;;;;9.02;8.20;;;;;;;6.76;100.00;96118.88;4955810;28;20023;-66
2023/03/20 07:45:03;;;;;;;9.38;8.55;;;;;;;6.83;100.00;96124.47;4955344;28;20063;-66
2023/03/20 07:47:29;;;;;;;10.48;8.38;;;;;;;6.97;100.00;96120.91;4954052;28;20046;-66
2023/03/20 07:49:54;;;;;;;8.65;7.82;;;;;;;7.02;100.00;96122.22;4957131;28;20030;-68
2023/03/20 07:52:20;;;;;;;8.52;7.72;;;;;;;7.03;100.00;96123.09;4935596;29;20043;-67
2023/03/20 07:54:45;;;;;;;9.65;8.75;;;;;;;7.03;100.00;96121.28;4956217;28;20035;-66
2023/03/20 07:57:11;;;;;;;9.82;8.10;;;;;;;7.12;100.00;96117.19;4953213;28;20476;-66
2023/03/20 07:59:36;;;;;;;8.57;7.68;;;;;;;7.28;100.00;96121.31;4953420;28;20117;-66
2023/03/20 08:02:01;;;;;;;7.78;7.13;;;;;;;7.42;100.00;96123.78;4953367;28;20057;-66
2023/03/20 08:04:27;;;;;;;7.30;6.75;;;;;;;7.58;100.00;96122.63;4954508;28;20038;-66
2023/03/20 08:06:52;;;;;;;9.73;8.73;;;;;;;7.73;100.00;96126.75;4954414;28;20037;-67
2023/03/20 08:09:18;;;;;;;11.73;9.75;;;;;;;7.90;100.00;96129.91;4952014;28;20385;-66
2023/03/20 08:11:44;;;;;;;8.02;7.40;;;;;;;7.97;100.00;96135.53;4954389;28;20027;-66
2023/03/20 08:14:09;;;;;;;7.57;6.90;;;;;;;8.14;100.00;96131.66;4954688;28;20027;-66
2023/03/20 08:16:35;;;;;;;5.93;5.43;;;;;;;8.27;100.00;96131.56;4955093;28;20027;-66
2023/03/20 08:19:01;;;;;;;5.63;5.13;;;;;;;8.23;100.00;96140.63;4955615;28;20083;-66
2023/03/20 08:21:28;;;;;;;4.85;4.00;;;;;;;8.10;100.00;96132.84;4949543;28;20054;-66
2023/03/20 08:23:54;;;;;;;4.68;4.30;;;;;;;7.92;100.00;96130.63;4952259;28;20047;-66
2023/03/20 08:26:19;;;;;;;6.40;5.80;;;;;;;7.97;100.00;96131.13;4951202;28;20020;-67
2023/03/20 08:28:45;;;;;;;6.43;5.60;;;;;;;8.10;100.00;96123.16;4954220;28;20027;-67
2023/03/20 08:31:10;;;;;;;5.43;4.93;;;;;;;8.35;100.00;96123.09;4955251;28;20395;-66
2023/03/20 08:33:35;;;;;;;5.72;5.22;;;;;;;8.51;100.00;96126.25;4953838;28;20070;-67
2023/03/20 08:36:01;;;;;;;4.85;4.45;;;;;;;8.67;100.00;96135.53;4949946;28;20041;-67
2023/03/20 08:38:26;;;;;;;4.07;3.60;;;;;;;8.70;100.00;96138.78;4955266;28;20122;-66
2023/03/20 08:40:53;;;;;;;3.97;3.60;;;;;;;8.83;99.59;96136.03;4947253;28;20026;-66
2023/03/20 08:43:19;;;;;;;4.00;3.65;;;;;;;8.71;100.00;96135.19;4950798;28;20024;-67
2023/03/20 08:45:46;;;;;;;4.00;3.70;;;;;;;8.74;100.00;96139.38;4952041;28;20437;-67
2023/03/20 08:48:11;;;;;;;3.60;3.30;;;;;;;8.96;98.80;96145.59;4953218;28;20023;-67
2023/03/20 08:50:37;;;;;;;5.13;3.88;;;;;;;8.86;99.87;96146.28;4953988;28;20079;-67
2023/03/20 08:53:04;;;;;;;5.57;3.50;;;;;;;8.75;99.47;96143.69;4952797;28;20027;-67
2023/03/20 08:55:29;;;;;;;9.07;3.60;;;;;;;8.77;99.37;96136.50;4954156;28;20395;-67
2023/03/20 08:57:56;;;;;;;11.75;4.38;;;;;;;8.98;97.58;96148.91;4952488;28;20027;-67
2023/03/20 09:00:22;;;;;;;9.00;4.63;;;;;;;9.10;98.06;96149.75;4952904;28;20051;-66
2023/03/20 09:02:49;;;;;;;7.43;4.22;;;;;;;9.08;97.55;96155.09;4951694;28;20031;-66
2023/03/20 09:05:15;;;;;;;6.95;3.58;;;;;;;9.12;97.14;96159.16;4951574;28;20426;-66
2023/03/20 09:07:40;;;;;;;11.00;3.92;;;;;;;9.30;95.91;96151.63;4955417;28;20023;-66
2023/03/20 09:10:06;;;;;;;6.32;4.18;;;;;;;9.26;95.92;96151.97;4957474;28;20022;-65
2023/03/20 09:12:32;;;;;;;3.22;2.90;;;;;;;9.46;92.89;96153.84;4957507;28;20134;-67
2023/03/20 09:14:58;;;;;;;5.40;3.83;;;;;;;9.44;92.38;96155.75;4958210;28;20436;-66
2023/03/20 09:17:23;;;;;;;5.07;3.38;;;;;;;9.55;94.35;96157.53;4959011;28;20396;-67
2023/03/20 09:19:49;;;;;;;4.28;3.30;;;;;;;9.60;94.45;96163.25;4955942;28;20035;-66
2023/03/20 09:22:16;;;;;;;4.40;3.30;;;;;;;9.53;92.57;96151.56;4954218;28;20019;-66
2023/03/20 09:24:42;;;;;;;5.38;4.00;;;;;;;9.54;92.95;96155.84;4952434;28;20054;-66
2023/03/20 09:27:08;;;;;;;4.78;3.17;;;;;;;9.58;92.19;96156.41;4953746;28;20702;-67
2023/03/20 09:29:34;;;;;;;4.00;3.10;;;;;;;9.68;90.72;96160.00;4955246;28;20023;-67
2023/03/20 09:31:59;;;;;;;6.60;3.08;;;;;;;9.50;91.31;96156.22;4953777;28;20027;-66
2023/03/20 09:34:25;;;;;;;3.65;3.17;;;;;;;9.58;92.12;96159.06;4955338;28;20039;-66
2023/03/20 09:36:51;;;;;;;3.55;3.20;;;;;;;9.79;90.40;96159.13;4952886;28;20053;-66
2023/03/20 09:39:17;;;;;;;3.78;3.47;;;;;;;9.96;89.49;96156.91;4953183;28;20019;-67
2023/03/20 09:41:47;;;;;;;7.90;5.50;;;;;;;10.09;89.09;96159.34;4957030;28;20365;-67
2023/03/20 09:44:53;;;;;;;4.90;4.43;;;;;;;10.22;87.08;96164.41;4951718;28;20026;-67
2023/03/20 09:47:29;;;;;;;3.30;3.03;;;;;;;10.13;86.61;96166.03;4954237;28;20027;-67
2023/03/20 09:50:12;;;;;;;2.30;2.17;;;;;;;10.06;88.31;96173.56;4954271;28;20029;-67
2023/03/20 09:52:45;;;;;;;4.57;3.90;;;;;;;10.12;86.51;96166.97;4950529;28;20122;-67
2023/03/20 09:55:19;;;;;;;2.58;2.38;;;;;;;9.88;86.82;96182.00;4947980;28;20027;-67
2023/03/20 09:57:50;;;;;;;3.13;2.50;;;;;;;9.72;85.49;96178.97;4957050;28;20039;-67
2023/03/20 10:00:23;;;;;;;2.72;2.53;;;;;;;9.59;86.10;96179.13;4953503;28;20079;-67
2023/03/20 10:02:58;;;;;;;2.58;2.40;;;;;;;9.59;84.27;96179.97;4950672;28;20038;-68
2023/03/20 10:05:26;;;;;;;1.92;1.83;;;;;;;9.54;85.74;96182.13;4953738;28;20094;-67
2023/03/20 10:07:58;;;;;;;2.00;1.90;;;;;;;9.57;86.81;96183.66;4946044;28;20031;-67
2023/03/20 10:10:29;;;;;;;2.30;2.20;;;;;;;9.98;86.80;96190.00;4951870;28;20657;-67
2023/03/20 10:13:00;;;;;;;2.40;2.20;;;;;;;10.01;85.82;96184.47;4951851;28;20938;-67
2023/03/20 10:15:41;;;;;;;2.63;2.42;;;;;;;10.03;84.45;96192.25;4950588;28;20467;-68
2023/03/20 10:18:32;;;;;;;3.05;2.80;;;;;;;9.82;86.58;96187.78;4953187;28;20059;-67
2023/03/20 10:21:14;;;;;;;3.08;2.40;;;;;;;10.14;85.23;96188.72;4944139;28;20041;-67
2023/03/20 10:23:48;;;;;;;2.63;2.15;;;;;;;10.12;84.20;96188.03;4955234;28;20027;-68
2023/03/20 10:26:18;;;;;;;2.78;2.58;;;;;;;10.00;84.95;96200.41;4950414;28;20019;-68
2023/03/20 10:29:15;;;;;;;3.75;2.30;;;;;;;9.71;83.14;96195.69;4939078;28;20061;-68
2023/03/20 10:31:48;;;;;;;3.20;2.45;;;;;;;9.96;83.67;96197.19;4944291;28;20035;-67
2023/03/20 10:34:44;;;;;;;2.28;2.17;;;;;;;9.81;84.94;96199.25;4953834;28;20031;-68
2023/03/20 10:37:21;;;;;;;2.15;2.05;;;;;;;9.55;84.62;96202.22;4954930;28;20035;-68
2023/03/20 10:39:56;;;;;;;2.92;2.42;;;;;;;9.41;87.22;96208.56;4951652;28;20031;-68
2023/03/20 10:42:28;;;;;;;2.30;2.15;;;;;;;9.74;84.25;96206.81;4950662;28;20031;-67
2023/03/20 10:45:00;;;;;;;2.70;2.50;;;;;;;9.89;83.15;96207.34;4956962;28;20502;-67
2023/03/20 10:47:29;;;;;;;2.65;2.45;;;;;;;9.37;85.98;96211.56;4956159;28;20631;-67
2023/03/20 10:50:00;;;;;;;2.47;2.17;;;;;;;9.24;88.34;96207.25;4952993;28;20400;-67
2023/03/20 10:52:31;;;;;;;2.47;2.28;;;;;;;9.24;89.84;96216.94;4954048;28;20103;-67
2023/03/20 10:55:07;;;;;;;2.55;2.35;;;;;;;9.48;88.59;96216.78;4953960;28;20548;-67
2023/03/20 10:57:37;;;;;;;2.30;2.10;;;;;;;9.36;90.15;96210.72;4951961;28;20034;-67
2023/03/20 11:00:09;;;;;;;2.40;2.20;;;;;;;9.45;88.91;96214.41;4957376;28;20051;-67
2023/03/20 11:02:36;;;;;;;2.28;2.17;;;;;;;9.55;89.90;96211.88;4954770;28;20032;-67
2023/03/20 11:05:22;;;;;;;2.42;2.22;;;;;;;9.63;85.96;96217.38;4956207;28;20031;-67
2023/03/20 11:07:51;;;;;;;2.22;2.03;;;;;;;9.42;88.14;96220.75;4946486;28;20034;-67
2023/03/20 11:10:17;;;;;;;2.63;2.40;;;;;;;9.32;86.79;96222.41;4946242;28;20031;-67
2023/03/20 11:12:47;;;;;;;2.47;2.00;;;;;;;9.51;85.84;96220.97;4949959;28;20027;-68
2023/03/20 11:15:25;;;;;;;3.28;2.00;;;;;;;9.74;86.10;96212.06;4950755;28;20058;-68
2023/03/20 11:17:52;;;;;;;2.50;2.20;;;;;;;9.78;87.03;96214.44;4955184;28;20034;-68
2023/03/20 11:20:18;;;;;;;1.83;1.83;;;;;;;9.97;87.59;96213.81;4953718;28;20019;-68
2023/03/20 11:22:43;;;;;;;2.50;2.40;;;;;;;10.41;85.85;96213.75;4950489;28;20437;-68
2023/03/20 11:25:23;;;;;;;2.30;2.20;;;;;;;10.44;84.95;96211.69;4952801;28;20073;-67
2023/03/20 11:27:48;;;;;;;2.28;2.17;;;;;;;10.79;80.45;96217.59;4953695;28;20039;-67
2023/03/20 11:30:17;;;;;;;2.30;2.20;;;;;;;10.83;80.08;96210.25;4949015;28;20115;-67
2023/03/20 11:32:48;;;;;;;2.50;2.35;;;;;;;10.57;80.76;96218.56;4957190;28;20031;-67
2023/03/20 11:35:29;;;;;;;4.85;2.15;;;;;;;11.06;77.51;96215.38;4956243;28;20444;-65
2023/03/20 11:38:07;;;;;;;3.40;2.08;;;;;;;10.73;79.17;96213.66;4952658;29;20384;-66
2023/03/20 11:40:33;;;;;;;4.32;2.50;;;;;;;10.81;80.22;96218.28;4957936;28;20503;-66
2023/03/20 11:42:59;;;;;;;2.65;2.45;;;;;;;10.73;78.79;96216.31;4952759;28;20031;-66
2023/03/20 11:45:25;;;;;;;2.10;1.95;;;;;;;10.77;77.94;96216.03;4952926;28;20500;-68